createdAt,value
2022-09-09T00:03:52.197Z,16.05
2022-09-09T00:09:05.706Z,16.03
2022-09-09T00:14:20.036Z,16.00
2022-09-09T00:19:30.584Z,15.91
2022-09-09T00:24:41.319Z,15.89
2022-09-09T00:29:55.443Z,15.86
2022-09-09T00:35:05.296Z,15.74
2022-09-09T00:40:25.503Z,15.83
2022-09-09T00:46:08.911Z,15.66
2022-09-09T00:51:20.708Z,15.74
2022-09-09T00:56:30.354Z,15.67
2022-09-09T01:01:37.191Z,15.66
2022-09-09T01:06:42.277Z,15.58
2022-09-09T01:12:01.943Z,15.35
2022-09-09T01:17:26.989Z,15.50
2022-09-09T01:22:55.615Z,15.55
2022-09-09T01:28:07.788Z,15.58
2022-09-09T01:33:17.690Z,15.57
2022-09-09T01:38:21.463Z,15.74
2022-09-09T01:43:30.988Z,15.74
2022-09-09T01:48:37.079Z,15.69
2022-09-09T01:53:49.651Z,15.66
2022-09-09T01:59:10.464Z,15.59
2022-09-09T02:04:26.376Z,15.51
2022-09-09T02:09:33.139Z,15.51
2022-09-09T02:14:43.349Z,15.66
2022-09-09T02:19:54.696Z,15.50
2022-09-09T02:25:09.621Z,15.41
2022-09-09T02:30:16.274Z,15.47
2022-09-09T02:35:29.863Z,15.22
2022-09-09T02:40:34.300Z,15.14
2022-09-09T02:45:50.965Z,15.06
2022-09-09T02:51:04.238Z,15.02
2022-09-09T02:56:16.191Z,14.97
2022-09-09T03:01:24.472Z,14.84
2022-09-09T03:06:29.453Z,14.70
2022-09-09T03:11:43.532Z,14.70
2022-09-09T03:16:50.344Z,14.62
2022-09-09T03:21:55.001Z,14.58
2022-09-09T03:26:59.279Z,14.62
2022-09-09T03:32:06.239Z,14.59
2022-09-09T03:37:10.505Z,14.43
2022-09-09T03:42:19.999Z,14.56
2022-09-09T03:47:30.608Z,14.53
2022-09-09T03:52:43.810Z,14.42
2022-09-09T03:57:55.090Z,14.34
2022-09-09T04:03:02.602Z,14.37
2022-09-09T04:08:06.864Z,14.41
2022-09-09T04:13:12.996Z,14.26
2022-09-09T04:18:20.715Z,14.21
2022-09-09T04:23:28.527Z,14.16
2022-09-09T04:28:34.917Z,14.20
2022-09-09T04:33:42.378Z,14.32
2022-09-09T04:38:50.102Z,14.24
2022-09-09T04:43:55.204Z,14.15
2022-09-09T04:49:02.355Z,14.18
2022-09-09T04:54:09.835Z,14.19
2022-09-09T04:59:17.223Z,14.36
2022-09-09T05:04:27.242Z,14.33
2022-09-09T05:09:32.205Z,14.39
2022-09-09T05:14:38.801Z,14.47
2022-09-09T05:19:46.960Z,14.57
2022-09-09T05:24:53.028Z,14.64
2022-09-09T05:29:58.892Z,14.71
2022-09-09T05:35:06.163Z,14.80
2022-09-09T05:40:12.449Z,14.98
2022-09-09T05:45:18.696Z,15.02
2022-09-09T05:50:28.632Z,15.09
2022-09-09T05:55:35.729Z,15.19
2022-09-09T06:00:42.197Z,15.30
2022-09-09T06:05:48.036Z,15.23
2022-09-09T06:10:53.787Z,15.48
2022-09-09T06:15:59.894Z,15.66
2022-09-09T06:21:10.623Z,15.88
2022-09-09T06:26:18.581Z,15.91
2022-09-09T06:31:29.746Z,16.02
2022-09-09T06:36:39.895Z,18.89
2022-09-09T06:41:45.947Z,23.30
2022-09-09T06:47:13.560Z,24.72
2022-09-09T06:52:21.506Z,27.84
2022-09-09T06:57:36.787Z,28.47
2022-09-09T07:02:44.174Z,27.82
2022-09-09T07:07:53.877Z,30.62
2022-09-09T07:13:00.042Z,30.57
2022-09-09T07:18:06.770Z,30.00
2022-09-09T07:23:13.005Z,32.72
2022-09-09T07:28:17.916Z,33.45
2022-09-09T07:33:22.568Z,35.07
2022-09-09T07:38:29.264Z,34.92
2022-09-09T07:43:34.560Z,33.92
2022-09-09T07:48:40.580Z,36.26
2022-09-09T07:53:47.461Z,33.26
2022-09-09T07:58:53.368Z,32.58
2022-09-09T08:04:02.514Z,30.98
2022-09-09T08:09:10.552Z,29.69
2022-09-09T08:14:17.375Z,29.00
2022-09-09T08:19:21.874Z,28.26
2022-09-09T08:24:28.106Z,27.00
2022-09-09T08:29:33.058Z,26.09
2022-09-09T08:34:41.246Z,27.17
2022-09-09T08:39:54.403Z,26.79
2022-09-09T08:45:23.106Z,25.08
2022-09-09T08:50:33.899Z,23.26
2022-09-09T08:55:51.532Z,23.64
2022-09-09T09:01:18.553Z,23.94
2022-09-09T09:06:44.721Z,23.38
2022-09-09T09:11:53.104Z,23.19
2022-09-09T09:17:01.452Z,22.04
2022-09-09T09:22:15.753Z,21.99
2022-09-09T09:27:33.401Z,22.40
2022-09-09T09:32:42.658Z,23.02
2022-09-09T09:43:24.615Z,23.71
2022-09-09T09:48:30.599Z,23.61
2022-09-09T09:53:40.251Z,23.58
2022-09-09T09:58:55.631Z,23.60
2022-09-09T10:04:20.016Z,23.94
2022-09-09T10:09:27.692Z,23.97
2022-09-09T10:14:45.493Z,24.10
2022-09-09T10:20:04.658Z,24.68
2022-09-09T10:25:29.510Z,24.40
2022-09-09T10:30:50.061Z,24.24
2022-09-09T10:36:04.553Z,24.37
2022-09-09T10:41:26.027Z,24.18
2022-09-09T10:46:42.940Z,24.10
2022-09-09T10:51:54.677Z,23.72
2022-09-09T10:57:05.715Z,24.84
2022-09-09T11:02:20.776Z,24.89
2022-09-09T11:07:34.808Z,25.45
2022-09-09T11:12:42.214Z,23.72
2022-09-09T11:17:52.535Z,23.65
2022-09-09T11:23:01.842Z,24.14
2022-09-09T11:28:28.418Z,24.42
2022-09-09T11:34:01.314Z,25.99
2022-09-09T11:39:29.854Z,26.61
2022-09-09T11:44:34.536Z,25.59
2022-09-09T11:49:47.230Z,26.41
2022-09-09T11:54:53.219Z,26.73
2022-09-09T11:59:58.602Z,26.56
2022-09-09T12:05:10.152Z,26.69
2022-09-09T12:10:26.811Z,26.19
2022-09-09T12:15:32.635Z,25.46
2022-09-09T12:20:40.194Z,25.65
2022-09-09T12:25:57.770Z,25.93
2022-09-09T12:31:10.699Z,25.51
2022-09-09T12:36:21.303Z,26.38
2022-09-09T12:41:28.155Z,27.42
2022-09-09T12:46:39.126Z,26.76
2022-09-09T12:51:46.282Z,26.99
2022-09-09T12:56:52.774Z,26.44
2022-09-09T13:02:01.399Z,25.76
2022-09-09T13:07:11.201Z,24.37
2022-09-09T13:12:19.383Z,24.99
2022-09-09T13:17:25.682Z,25.64
2022-09-09T13:22:37.498Z,25.61
2022-09-09T13:27:43.947Z,25.20
2022-09-09T13:32:49.135Z,24.95
2022-09-09T13:37:55.755Z,24.81
2022-09-09T13:43:01.248Z,24.65
2022-09-09T13:48:13.362Z,24.81
2022-09-09T13:53:20.510Z,24.59
2022-09-09T13:58:27.392Z,24.20
2022-09-09T14:03:31.762Z,24.76
2022-09-09T14:08:38.660Z,24.66
2022-09-09T14:13:43.288Z,23.87
2022-09-09T14:18:48.716Z,24.29
2022-09-09T14:23:56.242Z,24.53
2022-09-09T14:29:02.098Z,24.47
2022-09-09T14:34:07.691Z,24.55
2022-09-09T14:39:14.036Z,24.80
2022-09-09T14:44:18.670Z,25.68
2022-09-09T14:49:23.254Z,25.60
2022-09-09T14:54:29.464Z,24.94
2022-09-09T14:59:33.914Z,24.47
2022-09-09T15:04:38.914Z,24.12
2022-09-09T15:09:45.301Z,24.03
2022-09-09T15:14:51.920Z,23.97
2022-09-09T15:19:56.660Z,23.97
2022-09-09T15:25:03.191Z,23.56
2022-09-09T15:30:09.456Z,23.26
2022-09-09T15:35:13.643Z,22.68
2022-09-09T15:40:19.549Z,22.44
2022-09-09T15:45:23.869Z,22.53
2022-09-09T15:50:29.750Z,22.19
2022-09-09T15:55:35.831Z,22.01
2022-09-09T16:00:40.776Z,22.01
2022-09-09T16:05:45.675Z,21.71
2022-09-09T16:10:52.190Z,21.59
2022-09-09T16:15:56.981Z,21.42
2022-09-09T16:21:01.557Z,21.34
2022-09-09T16:26:08.562Z,21.12
2022-09-09T16:31:17.741Z,21.01
2022-09-09T16:36:23.837Z,20.93
2022-09-09T16:41:32.524Z,20.69
2022-09-09T16:46:39.626Z,20.44
2022-09-09T16:51:47.295Z,20.26
2022-09-09T16:56:53.864Z,20.16
2022-09-09T17:01:58.167Z,19.82
2022-09-09T17:07:03.245Z,19.62
2022-09-09T17:12:10.791Z,19.52
2022-09-09T17:17:31.270Z,19.29
2022-09-09T17:22:36.841Z,19.27
2022-09-09T17:27:42.588Z,18.96
2022-09-09T17:32:47.783Z,18.66
2022-09-09T17:37:52.314Z,18.64
2022-09-09T17:43:02.787Z,18.52
2022-09-09T17:48:08.405Z,18.39
2022-09-09T17:53:12.643Z,18.41
2022-09-09T17:58:18.522Z,18.43
2022-09-09T18:03:22.804Z,18.17
2022-09-09T18:08:28.005Z,18.06
2022-09-09T18:13:34.889Z,18.20
2022-09-09T18:18:39.803Z,18.00
2022-09-09T18:23:47.370Z,17.95
2022-09-09T18:28:56.088Z,17.88
2022-09-09T18:34:03.220Z,18.04
2022-09-09T18:46:21.743Z,17.73
2022-09-09T18:51:30.023Z,17.91
2022-09-09T18:56:35.282Z,17.98
2022-09-09T19:01:42.692Z,18.08
2022-09-09T19:06:48.759Z,18.20
2022-09-09T19:11:52.996Z,18.11
2022-09-09T19:16:59.575Z,18.21
2022-09-09T19:22:09.338Z,18.06
2022-09-09T19:27:13.261Z,18.02
2022-09-09T19:37:44.824Z,17.89
2022-09-09T19:42:50.324Z,18.05
2022-09-09T19:47:56.337Z,17.94
2022-09-09T19:53:01.018Z,17.87
2022-09-09T19:58:05.912Z,17.95
2022-09-09T20:03:19.250Z,18.02
2022-09-09T20:08:25.668Z,17.94
2022-09-09T20:13:32.071Z,17.88
2022-09-09T20:18:40.419Z,17.83
2022-09-09T20:23:45.648Z,17.76
2022-09-09T20:28:52.067Z,17.65
2022-09-09T20:33:59.263Z,17.57
2022-09-09T20:39:07.521Z,17.54
2022-09-09T20:44:14.814Z,17.33
2022-09-09T20:49:24.699Z,17.41
2022-09-09T20:54:31.439Z,17.44
2022-09-09T20:59:36.133Z,17.49
2022-09-09T21:04:43.018Z,17.46
2022-09-09T21:09:47.165Z,17.40
2022-09-09T21:14:52.086Z,17.52
2022-09-09T21:19:57.765Z,17.51
2022-09-09T21:25:01.994Z,17.53
2022-09-09T21:30:06.893Z,17.46
2022-09-09T21:35:13.612Z,17.50
2022-09-09T21:40:18.559Z,17.45
2022-09-09T21:45:23.642Z,17.39
2022-09-09T21:50:29.857Z,17.28
2022-09-09T21:55:37.440Z,17.27
2022-09-09T22:00:43.164Z,17.21
2022-09-09T22:05:53.727Z,17.27
2022-09-09T22:10:58.281Z,17.26
2022-09-09T22:16:05.086Z,17.25
2022-09-09T22:21:13.021Z,17.11
2022-09-09T22:26:17.362Z,17.09
2022-09-09T22:31:23.202Z,16.91
2022-09-09T22:36:29.948Z,16.94
2022-09-09T22:41:34.445Z,16.89
2022-09-09T22:46:38.902Z,16.83
2022-09-09T22:51:45.830Z,16.80
2022-09-09T22:56:50.547Z,16.81
2022-09-09T23:01:55.276Z,16.91
2022-09-09T23:07:01.194Z,16.90
2022-09-09T23:12:08.679Z,17.02
2022-09-09T23:17:19.363Z,16.92
2022-09-09T23:22:27.449Z,16.93
2022-09-09T23:27:31.950Z,16.99
2022-09-09T23:32:37.636Z,16.85
2022-09-09T23:37:43.427Z,16.25
2022-09-09T23:42:48.633Z,16.23
2022-09-09T23:47:56.219Z,16.22
2022-09-09T23:53:03.667Z,16.46
2022-09-09T23:58:08.836Z,16.47
